createdAt,value
2022-09-24T00:01:18.933Z,6.95
2022-09-24T00:06:22.486Z,6.96
2022-09-24T00:11:26.830Z,6.97
2022-09-24T00:16:37.964Z,6.95
2022-09-24T00:21:41.098Z,6.93
2022-09-24T00:26:51.974Z,6.91
2022-09-24T00:31:53.913Z,6.86
2022-09-24T00:36:55.708Z,6.79
2022-09-24T00:41:59.671Z,6.68
2022-09-24T00:47:05.516Z,6.55
2022-09-24T00:52:07.784Z,6.48
2022-09-24T00:57:09.967Z,6.45
2022-09-24T01:02:12.790Z,6.29
2022-09-24T01:07:14.818Z,6.11
2022-09-24T01:12:44.735Z,6.02
2022-09-24T01:18:04.595Z,5.86
2022-09-24T01:23:37.746Z,5.68
2022-09-24T01:29:17.288Z,5.58
2022-09-24T01:34:27.019Z,5.42
2022-09-24T01:39:31.341Z,5.32
2022-09-24T01:44:34.985Z,5.18
2022-09-24T01:49:36.973Z,5.10
2022-09-24T01:54:42.431Z,5.03
2022-09-24T01:59:52.375Z,4.91
2022-09-24T02:05:32.671Z,4.77
2022-09-24T02:11:11.421Z,4.61
2022-09-24T02:16:14.795Z,4.55
2022-09-24T02:21:19.849Z,4.47
2022-09-24T02:26:24.517Z,4.48
2022-09-24T02:31:38.052Z,4.45
2022-09-24T02:36:47.735Z,4.46
2022-09-24T02:41:50.151Z,4.42
2022-09-24T02:46:52.827Z,4.42
2022-09-24T02:51:56.039Z,4.49
2022-09-24T02:56:58.076Z,4.56
2022-09-24T03:02:07.178Z,4.52
2022-09-24T03:07:10.471Z,4.56
2022-09-24T03:12:12.719Z,4.63
2022-09-24T03:17:14.453Z,4.72
2022-09-24T03:22:16.391Z,4.88
2022-09-24T03:27:18.255Z,5.01
2022-09-24T03:32:20.184Z,5.06
2022-09-24T03:37:21.902Z,5.08
2022-09-24T03:42:23.625Z,5.18
2022-09-24T03:47:25.643Z,5.19
2022-09-24T03:52:27.658Z,5.12
2022-09-24T03:57:29.543Z,5.09
2022-09-24T04:02:31.351Z,5.10
2022-09-24T04:07:33.305Z,5.09
2022-09-24T04:12:34.994Z,5.04
2022-09-24T04:17:36.837Z,5.04
2022-09-24T04:22:39.426Z,4.95
2022-09-24T04:27:41.468Z,4.87
2022-09-24T04:32:43.402Z,4.90
2022-09-24T04:37:46.208Z,4.93
2022-09-24T04:42:48.273Z,4.89
2022-09-24T04:47:56.178Z,4.88
2022-09-24T04:52:57.984Z,4.96
2022-09-24T04:57:59.710Z,5.09
2022-09-24T05:03:05.284Z,5.27
2022-09-24T05:08:07.201Z,5.46
2022-09-24T05:13:09.693Z,5.66
2022-09-24T05:18:11.768Z,5.88
2022-09-24T05:23:13.615Z,6.14
2022-09-24T05:28:15.311Z,6.33
2022-09-24T05:33:17.147Z,6.49
2022-09-24T05:38:18.865Z,6.59
2022-09-24T05:43:20.673Z,6.69
2022-09-24T05:48:31.717Z,6.81
2022-09-24T05:53:41.161Z,6.99
2022-09-24T05:58:43.068Z,7.20
2022-09-24T06:03:45.043Z,7.42
2022-09-24T06:08:46.838Z,7.66
2022-09-24T06:13:49.693Z,7.88
2022-09-24T06:18:51.586Z,8.10
2022-09-24T06:23:53.376Z,8.28
2022-09-24T06:28:56.237Z,8.50
2022-09-24T06:34:00.614Z,8.76
2022-09-24T06:39:02.398Z,9.02
2022-09-24T06:44:04.275Z,9.29
2022-09-24T06:49:06.190Z,9.71
2022-09-24T06:54:07.965Z,10.06
2022-09-24T06:59:10.081Z,10.36
2022-09-24T07:04:12.024Z,10.58
2022-09-24T07:09:13.769Z,10.78
2022-09-24T07:14:15.785Z,11.01
2022-09-24T07:19:17.476Z,11.26
2022-09-24T07:24:19.220Z,11.51
2022-09-24T07:29:25.053Z,11.81
2022-09-24T07:34:27.176Z,12.02
2022-09-24T07:39:29.015Z,12.42
2022-09-24T07:44:50.713Z,12.86
2022-09-24T07:50:00.333Z,13.25
2022-09-24T07:55:02.047Z,13.54
2022-09-24T08:00:07.959Z,13.80
2022-09-24T08:05:18.179Z,14.06
2022-09-24T08:10:20.206Z,14.30
2022-09-24T08:15:22.867Z,14.65
2022-09-24T08:20:24.858Z,14.94
2022-09-24T08:25:26.612Z,15.20
2022-09-24T08:30:28.303Z,15.39
2022-09-24T08:35:30.159Z,15.57
2022-09-24T08:40:46.059Z,15.70
2022-09-24T08:46:30.712Z,15.82
2022-09-24T08:51:41.484Z,16.01
2022-09-24T08:57:03.696Z,16.16
2022-09-24T09:02:21.005Z,16.23
2022-09-24T09:07:32.618Z,16.42
2022-09-24T09:12:38.760Z,16.63
2022-09-24T09:17:54.832Z,16.83
2022-09-24T09:23:03.667Z,17.03
2022-09-24T09:28:15.704Z,17.17
2022-09-24T09:33:46.553Z,17.31
2022-09-24T09:39:06.098Z,17.34
2022-09-24T09:44:20.453Z,17.34
2022-09-24T09:49:36.351Z,17.39
2022-09-24T09:54:39.624Z,17.50
2022-09-24T09:59:45.531Z,17.50
2022-09-24T10:04:50.052Z,17.53
2022-09-24T10:10:13.859Z,17.75
2022-09-24T10:15:34.740Z,17.90
2022-09-24T10:20:50.612Z,18.40
2022-09-24T10:26:00.126Z,19.03
2022-09-24T10:31:07.219Z,19.67
2022-09-24T10:36:17.139Z,20.48
2022-09-24T10:41:27.262Z,20.77
2022-09-24T10:46:35.147Z,20.45
2022-09-24T10:51:49.914Z,20.40
2022-09-24T10:56:55.833Z,20.33
2022-09-24T11:02:26.226Z,20.55
2022-09-24T11:08:02.700Z,20.76
2022-09-24T11:13:26.034Z,21.23
2022-09-24T11:18:46.675Z,21.99
2022-09-24T11:24:09.836Z,22.42
2022-09-24T11:29:36.832Z,22.25
2022-09-24T11:35:21.811Z,22.06
2022-09-24T11:40:42.745Z,21.83
2022-09-24T11:45:50.557Z,21.69
2022-09-24T11:51:20.931Z,21.62
2022-09-24T11:56:50.726Z,21.37
2022-09-24T12:02:19.387Z,21.48
2022-09-24T12:07:37.974Z,21.92
2022-09-24T12:12:43.091Z,22.26
2022-09-24T12:18:09.072Z,22.25
2022-09-24T12:23:14.828Z,21.97
2022-09-24T12:28:39.359Z,21.76
2022-09-24T12:33:49.161Z,21.58
2022-09-24T12:39:02.565Z,21.63
2022-09-24T12:44:10.091Z,22.67
2022-09-24T12:49:34.400Z,23.82
2022-09-24T12:54:39.395Z,24.70
2022-09-24T12:59:56.646Z,25.09
2022-09-24T13:05:01.547Z,24.39
2022-09-24T13:10:18.533Z,23.68
2022-09-24T13:15:32.622Z,23.23
2022-09-24T13:20:36.300Z,22.62
2022-09-24T13:25:38.621Z,22.11
2022-09-24T13:30:42.986Z,21.70
2022-09-24T13:36:02.098Z,21.23
2022-09-24T13:41:26.047Z,21.06
2022-09-24T13:46:30.163Z,21.11
2022-09-24T13:51:38.119Z,21.39
2022-09-24T13:56:40.302Z,21.48
2022-09-24T14:01:44.163Z,21.83
2022-09-24T14:07:04.748Z,22.39
2022-09-24T14:12:21.334Z,23.02
2022-09-24T14:17:23.224Z,23.08
2022-09-24T14:22:34.052Z,23.13
2022-09-24T14:27:45.813Z,23.41
2022-09-24T14:32:53.481Z,23.64
2022-09-24T14:38:02.194Z,23.51
2022-09-24T14:43:03.989Z,23.62
2022-09-24T14:48:28.475Z,23.56
2022-09-24T14:53:37.809Z,23.06
2022-09-24T14:58:39.581Z,22.18
2022-09-24T15:03:51.935Z,21.54
2022-09-24T15:08:59.110Z,21.28
2022-09-24T15:14:19.825Z,20.62
2022-09-24T15:19:24.887Z,19.86
2022-09-24T15:24:26.923Z,19.17
2022-09-24T15:29:28.659Z,18.59
2022-09-24T15:34:30.358Z,18.14
2022-09-24T15:39:32.303Z,17.84
2022-09-24T15:44:34.409Z,17.57
2022-09-24T15:49:50.682Z,17.32
2022-09-24T15:55:14.307Z,16.95
2022-09-24T16:00:18.912Z,16.54
2022-09-24T16:05:21.094Z,16.06
2022-09-24T16:10:22.932Z,15.64
2022-09-24T16:15:24.843Z,15.30
2022-09-24T16:20:26.825Z,15.05
2022-09-24T16:25:29.238Z,14.78
2022-09-24T16:30:38.293Z,14.44
2022-09-24T16:35:40.579Z,14.06
2022-09-24T16:40:42.759Z,13.69
2022-09-24T16:45:46.867Z,13.37
2022-09-24T16:50:57.752Z,13.11
2022-09-24T16:56:16.014Z,12.88
2022-09-24T17:01:21.377Z,12.68
2022-09-24T17:06:25.848Z,12.47
2022-09-24T17:11:27.685Z,12.30
2022-09-24T17:16:30.448Z,12.19
2022-09-24T17:21:33.075Z,12.04
2022-09-24T17:26:38.655Z,11.91
2022-09-24T17:31:40.815Z,11.77
2022-09-24T17:36:49.721Z,11.65
2022-09-24T17:42:05.171Z,11.58
2022-09-24T17:47:07.911Z,11.48
2022-09-24T17:52:09.798Z,11.38
2022-09-24T17:57:11.610Z,11.37
2022-09-24T18:02:15.538Z,11.26
2022-09-24T18:07:19.470Z,11.09
2022-09-24T18:12:21.544Z,10.99
2022-09-24T18:17:23.859Z,10.73
2022-09-24T18:22:25.900Z,10.47
2022-09-24T18:27:28.305Z,10.27
2022-09-24T18:32:31.924Z,10.11
2022-09-24T18:37:38.168Z,10.00
2022-09-24T18:42:40.179Z,9.90
2022-09-24T18:47:42.262Z,9.82
2022-09-24T18:52:44.435Z,9.60
2022-09-24T18:57:46.432Z,9.33
2022-09-24T19:02:48.898Z,9.09
2022-09-24T19:07:51.106Z,9.02
2022-09-24T19:12:55.322Z,8.87
2022-09-24T19:18:04.312Z,8.69
2022-09-24T19:23:08.567Z,8.54
2022-09-24T19:28:12.976Z,8.44
2022-09-24T19:33:17.247Z,8.31
2022-09-24T19:38:19.059Z,8.19
2022-09-24T19:43:22.495Z,8.30
2022-09-24T19:48:26.059Z,8.20
2022-09-24T19:53:29.710Z,7.97
2022-09-24T19:58:31.891Z,7.87
2022-09-24T20:03:37.456Z,7.75
2022-09-24T20:08:39.740Z,7.56
2022-09-24T20:13:46.402Z,7.40
2022-09-24T20:18:50.469Z,7.29
2022-09-24T20:23:54.594Z,7.39
2022-09-24T20:28:56.744Z,7.35
2022-09-24T20:34:01.780Z,7.16
2022-09-24T20:39:04.203Z,7.01
2022-09-24T20:44:06.011Z,6.87
2022-09-24T20:49:07.921Z,6.77
2022-09-24T20:54:16.275Z,6.71
2022-09-24T20:59:18.152Z,6.69
2022-09-24T21:04:23.521Z,6.91
2022-09-24T21:09:25.307Z,6.88
2022-09-24T21:14:29.004Z,6.82
2022-09-24T21:19:32.526Z,6.90
2022-09-24T21:24:34.949Z,6.91
2022-09-24T21:29:38.129Z,6.95
2022-09-24T21:34:41.655Z,7.03
2022-09-24T21:39:44.971Z,7.05
2022-09-24T21:44:48.042Z,6.96
2022-09-24T21:49:50.146Z,6.80
2022-09-24T21:54:51.848Z,6.72
2022-09-24T21:59:59.408Z,6.69
2022-09-24T22:05:01.601Z,6.69
2022-09-24T22:10:03.813Z,6.61
2022-09-24T22:15:06.899Z,6.58
2022-09-24T22:20:09.426Z,6.63
2022-09-24T22:25:11.126Z,6.58
2022-09-24T22:30:13.642Z,6.44
2022-09-24T22:35:36.422Z,6.31
2022-09-24T22:40:40.662Z,6.21
2022-09-24T22:46:02.699Z,6.25
2022-09-24T22:51:16.185Z,6.10
2022-09-24T22:56:21.273Z,6.02
2022-09-24T23:01:46.698Z,5.96
2022-09-24T23:07:02.049Z,5.95
2022-09-24T23:12:03.891Z,5.93
2022-09-24T23:17:05.752Z,5.86
2022-09-24T23:22:07.670Z,5.80
2022-09-24T23:27:10.483Z,5.78
2022-09-24T23:32:14.115Z,5.85
2022-09-24T23:37:16.022Z,5.92
2022-09-24T23:42:17.901Z,5.99
2022-09-24T23:47:19.628Z,6.09
2022-09-24T23:52:21.608Z,6.17
2022-09-24T23:57:23.408Z,6.27
